Time;durP1;ratioP1;P1;durP2;ratioP2;P2;SDS_P1;SDS_P2;PMS_P1;PMS_P2;Temp;Humidity;BMP_temperature;BMP_pressure;BME280_temperature;BME280_humidity;BME280_pressure;Samples;Min_cycle;Max_cycle;Signal;HPM_P1;HPM_P2
2021/09/08 00:02:24;;;;;;;1.10;1.00;;;17.90;74.50;;;;;;4867280;29;20476;-85
2021/09/08 00:04:50;;;;;;;1.20;0.90;;;17.90;74.50;;;;;;4898499;29;20041;-85
2021/09/08 00:07:15;;;;;;;1.33;0.95;;;17.90;74.40;;;;;;4867208;29;20093;-85
2021/09/08 00:09:41;;;;;;;1.92;1.02;;;17.90;74.40;;;;;;4900649;29;20035;-85
2021/09/08 00:12:07;;;;;;;1.95;1.15;;;17.90;74.30;;;;;;4883976;29;20042;-86
2021/09/08 00:14:33;;;;;;;1.67;1.15;;;17.90;74.40;;;;;;4898179;29;20041;-86
2021/09/08 00:16:59;;;;;;;1.10;0.90;;;17.90;74.40;;;;;;4867989;29;20045;-86
2021/09/08 00:19:25;;;;;;;1.52;1.00;;;17.90;74.50;;;;;;4867083;29;20067;-85
2021/09/08 00:21:51;;;;;;;1.52;0.90;;;17.90;74.50;;;;;;4898662;29;20077;-85
2021/09/08 00:24:17;;;;;;;1.80;1.10;;;17.80;74.40;;;;;;4882483;29;20072;-86
2021/09/08 00:26:42;;;;;;;1.00;0.80;;;17.80;74.50;;;;;;4900241;29;20041;-85
2021/09/08 00:29:08;;;;;;;1.58;1.10;;;17.80;74.50;;;;;;4883022;29;20037;-85
2021/09/08 00:31:34;;;;;;;1.58;0.90;;;17.90;74.50;;;;;;4882552;29;20075;-86
2021/09/08 00:33:59;;;;;;;1.73;1.02;;;17.70;75.20;;;;;;4882590;29;20127;-86
2021/09/08 00:36:25;;;;;;;1.60;1.10;;;17.80;74.60;;;;;;4898570;29;20040;-85
2021/09/08 00:38:51;;;;;;;1.45;1.02;;;17.70;74.50;;;;;;4899771;29;20147;-85
2021/09/08 00:41:18;;;;;;;2.20;1.30;;;17.70;74.50;;;;;;4883018;29;20044;-86
2021/09/08 00:43:45;;;;;;;1.00;0.90;;;17.70;74.40;;;;;;4890624;29;20384;-86
2021/09/08 00:46:11;;;;;;;2.80;1.02;;;17.70;74.40;;;;;;4859287;29;20029;-85
2021/09/08 00:48:37;;;;;;;1.92;1.20;;;17.70;74.40;;;;;;4882914;29;20032;-85
2021/09/08 00:51:02;;;;;;;1.77;1.10;;;17.70;74.40;;;;;;4882865;29;20033;-86
2021/09/08 00:53:29;;;;;;;2.00;1.40;;;17.70;74.40;;;;;;4896987;29;20066;-85
2021/09/08 00:55:55;;;;;;;1.38;1.00;;;17.70;74.40;;;;;;4898747;29;20033;-85
2021/09/08 00:58:21;;;;;;;1.67;1.20;;;17.70;74.40;;;;;;4882325;29;20044;-84
2021/09/08 01:00:47;;;;;;;1.98;1.17;;;17.70;74.40;;;;;;4881887;29;20440;-85
2021/09/08 01:03:13;;;;;;;1.75;1.30;;;17.80;74.50;;;;;;4898744;29;20032;-85
2021/09/08 01:05:38;;;;;;;2.13;1.40;;;17.70;74.40;;;;;;4897456;29;20096;-86
2021/09/08 01:08:06;;;;;;;2.33;1.27;;;17.70;74.40;;;;;;4897506;29;20041;-85
2021/09/08 01:10:32;;;;;;;3.83;1.30;;;17.70;74.40;;;;;;4899149;29;20051;-85
2021/09/08 01:12:57;;;;;;;1.83;1.20;;;17.70;74.40;;;;;;4897060;29;20040;-85
2021/09/08 01:15:23;;;;;;;1.45;1.08;;;17.60;74.40;;;;;;4865912;29;20075;-85
2021/09/08 01:17:49;;;;;;;1.42;1.05;;;17.50;74.30;;;;;;4881861;29;20060;-85
2021/09/08 01:20:16;;;;;;;2.17;1.27;;;17.60;74.40;;;;;;4899350;29;20055;-86
2021/09/08 01:22:55;;;;;;;1.77;1.20;;;17.50;74.50;;;;;;4866462;29;20068;-85
2021/09/08 01:25:23;;;;;;;1.48;1.10;;;17.50;74.60;;;;;;4884110;29;20112;-86
2021/09/08 01:27:51;;;;;;;1.75;1.10;;;17.50;74.60;;;;;;4866529;29;20037;-85
2021/09/08 01:30:22;;;;;;;1.95;1.05;;;17.40;74.60;;;;;;4881808;29;20041;-86
2021/09/08 01:32:48;;;;;;;1.90;1.10;;;17.50;74.80;;;;;;4896970;29;20044;-86
2021/09/08 01:35:16;;;;;;;1.58;1.13;;;17.50;74.80;;;;;;4882518;29;20123;-85
2021/09/08 01:37:42;;;;;;;1.20;0.93;;;17.50;74.90;;;;;;4896912;29;20036;-85
2021/09/08 01:40:08;;;;;;;2.60;1.50;;;17.40;74.80;;;;;;4882982;29;20132;-85
2021/09/08 01:42:34;;;;;;;2.17;1.60;;;17.40;74.80;;;;;;4898705;29;20123;-85
2021/09/08 01:45:00;;;;;;;2.90;1.60;;;17.40;74.80;;;;;;4895785;29;20144;-85
2021/09/08 01:47:26;;;;;;;2.35;1.52;;;17.40;74.90;;;;;;4880991;29;20543;-85
2021/09/08 01:49:51;;;;;;;2.95;1.40;;;17.30;74.80;;;;;;4897169;29;20036;-86
2021/09/08 01:52:19;;;;;;;1.63;1.20;;;17.40;74.90;;;;;;4881494;29;20078;-85
2021/09/08 01:54:45;;;;;;;2.58;1.50;;;17.50;75.00;;;;;;4881172;29;20059;-86
2021/09/08 01:57:10;;;;;;;2.33;1.40;;;17.30;74.90;;;;;;4898161;29;20444;-85
2021/09/08 01:59:36;;;;;;;1.73;1.25;;;17.30;75.00;;;;;;4881034;29;20044;-85
2021/09/08 02:02:02;;;;;;;2.45;1.35;;;17.30;75.10;;;;;;4896685;29;20128;-85
2021/09/08 02:04:28;;;;;;;1.15;0.98;;;17.40;75.20;;;;;;4881341;29;20029;-85
2021/09/08 02:06:53;;;;;;;1.77;1.30;;;17.20;75.20;;;;;;4896683;29;20059;-86
2021/09/08 02:09:21;;;;;;;1.67;1.20;;;17.10;75.30;;;;;;4879696;29;20111;-85
2021/09/08 02:11:47;;;;;;;1.90;1.20;;;17.20;75.40;;;;;;4897830;29;20041;-85
2021/09/08 02:14:13;;;;;;;1.75;1.10;;;17.20;75.50;;;;;;4880857;29;20118;-85
2021/09/08 02:16:39;;;;;;;1.90;1.17;;;17.10;75.40;;;;;;4881343;29;20399;-85
2021/09/08 02:19:07;;;;;;;1.27;1.10;;;17.10;75.50;;;;;;4880368;29;20056;-85
2021/09/08 02:21:33;;;;;;;1.27;0.88;;;17.10;76.30;;;;;;4865259;29;20037;-85
2021/09/08 02:23:59;;;;;;;2.25;1.15;;;17.00;75.70;;;;;;4896543;29;20033;-85
2021/09/08 02:26:24;;;;;;;1.55;1.00;;;17.00;75.70;;;;;;4897875;29;20044;-86
2021/09/08 02:28:50;;;;;;;1.98;1.17;;;16.90;75.70;;;;;;4880784;29;20129;-85
2021/09/08 02:31:16;;;;;;;1.02;0.93;;;17.00;75.80;;;;;;4896108;29;20140;-86
2021/09/08 02:33:41;;;;;;;1.60;1.10;;;17.00;75.90;;;;;;4880901;29;20472;-86
2021/09/08 02:36:07;;;;;;;1.50;1.00;;;16.90;75.90;;;;;;4896172;29;20064;-86
2021/09/08 02:38:34;;;;;;;1.48;1.20;;;16.90;76.00;;;;;;4880753;29;20515;-85
2021/09/08 02:41:05;;;;;;;1.50;1.17;;;16.90;76.00;;;;;;4895522;29;20135;-86
2021/09/08 02:43:32;;;;;;;2.20;1.42;;;16.80;76.00;;;;;;4901649;29;20132;-85
2021/09/08 02:46:01;;;;;;;2.30;1.33;;;16.80;76.00;;;;;;4881084;29;20069;-86
2021/09/08 02:48:27;;;;;;;1.50;1.13;;;16.80;76.00;;;;;;4881815;29;20388;-85
2021/09/08 02:50:53;;;;;;;2.25;1.17;;;16.70;76.10;;;;;;4896462;29;20047;-85
2021/09/08 02:53:19;;;;;;;1.67;1.15;;;16.80;76.20;;;;;;4865111;29;20045;-85
2021/09/08 02:55:44;;;;;;;1.55;1.17;;;16.70;76.20;;;;;;4880310;29;20052;-86
2021/09/08 02:58:10;;;;;;;1.88;1.35;;;16.70;76.30;;;;;;4880354;29;20076;-85
2021/09/08 03:00:36;;;;;;;1.73;1.20;;;16.60;76.30;;;;;;4895734;29;20060;-86
2021/09/08 03:03:02;;;;;;;2.05;1.42;;;16.60;76.30;;;;;;4880152;29;20045;-86
2021/09/08 03:05:27;;;;;;;2.35;1.55;;;16.60;76.30;;;;;;4896144;29;20108;-86
2021/09/08 03:07:53;;;;;;;2.40;1.52;;;16.70;76.50;;;;;;4880002;29;20116;-85
2021/09/08 03:10:19;;;;;;;2.28;1.30;;;16.60;76.40;;;;;;4895516;29;20055;-85
2021/09/08 03:12:44;;;;;;;1.98;1.40;;;16.60;77.20;;;;;;4895939;29;20048;-85
2021/09/08 03:15:10;;;;;;;2.40;1.30;;;16.60;76.50;;;;;;4880779;29;20108;-85
2021/09/08 03:17:36;;;;;;;1.63;0.98;;;16.60;76.60;;;;;;4896336;29;20056;-85
2021/09/08 03:20:02;;;;;;;3.15;1.60;;;16.50;76.60;;;;;;4882049;29;20053;-84
2021/09/08 03:22:28;;;;;;;2.00;1.38;;;16.50;76.60;;;;;;4890538;29;20052;-84
2021/09/08 03:24:53;;;;;;;1.35;1.05;;;16.50;76.60;;;;;;4905373;29;20495;-85
2021/09/08 03:27:19;;;;;;;1.60;1.02;;;16.50;76.60;;;;;;4897872;29;20524;-85
2021/09/08 03:29:45;;;;;;;1.88;1.23;;;16.50;76.60;;;;;;4880400;29;20048;-85
2021/09/08 03:32:11;;;;;;;2.33;1.50;;;16.50;76.70;;;;;;4897735;29;20037;-86
2021/09/08 03:34:36;;;;;;;1.70;1.30;;;16.40;76.70;;;;;;4896508;29;20411;-84
2021/09/08 03:37:02;;;;;;;2.58;1.50;;;16.40;76.80;;;;;;4895378;29;20054;-85
2021/09/08 03:39:28;;;;;;;2.28;1.42;;;16.40;76.80;;;;;;4879992;29;20044;-85
2021/09/08 03:41:53;;;;;;;2.28;1.40;;;16.40;76.90;;;;;;4895220;29;20498;-86
2021/09/08 03:44:19;;;;;;;2.45;1.50;;;16.40;76.90;;;;;;4879802;29;20029;-86
2021/09/08 03:46:45;;;;;;;1.63;1.20;;;16.30;76.90;;;;;;4883270;29;20037;-86
2021/09/08 03:49:11;;;;;;;1.45;1.10;;;16.30;77.00;;;;;;4895398;29;20084;-85
2021/09/08 03:51:36;;;;;;;1.80;1.27;;;16.30;77.00;;;;;;4881359;29;20052;-86
2021/09/08 03:54:02;;;;;;;1.95;1.17;;;16.30;77.10;;;;;;4895680;29;20479;-85
2021/09/08 03:56:28;;;;;;;2.20;1.38;;;16.30;77.10;;;;;;4896510;29;20039;-85
2021/09/08 03:58:54;;;;;;;1.95;1.30;;;16.40;77.30;;;;;;4897799;29;20044;-85
2021/09/08 04:01:19;;;;;;;1.65;1.10;;;16.30;77.30;;;;;;4895616;29;20037;-85
2021/09/08 04:03:47;;;;;;;1.35;1.10;;;16.20;77.20;;;;;;4866091;29;20169;-85
2021/09/08 04:06:14;;;;;;;1.15;1.00;;;16.30;77.40;;;;;;4895467;29;20068;-86
2021/09/08 04:08:40;;;;;;;2.47;1.45;;;16.20;77.40;;;;;;4898033;29;20119;-85
2021/09/08 04:11:05;;;;;;;1.30;1.00;;;16.20;77.40;;;;;;4898653;29;20124;-86
2021/09/08 04:13:31;;;;;;;1.50;1.00;;;16.20;77.40;;;;;;4883165;29;20044;-85
2021/09/08 04:15:57;;;;;;;1.42;1.00;;;16.20;77.50;;;;;;4867347;29;20052;-85
2021/09/08 04:18:23;;;;;;;1.92;1.30;;;16.10;77.50;;;;;;4882355;29;20053;-85
2021/09/08 04:20:48;;;;;;;1.98;1.30;;;16.10;77.60;;;;;;4898321;29;20056;-85
2021/09/08 04:23:14;;;;;;;2.58;1.45;;;16.20;77.70;;;;;;4882692;29;20112;-85
2021/09/08 04:25:41;;;;;;;1.98;1.30;;;16.10;77.60;;;;;;4898230;29;20056;-85
2021/09/08 04:28:07;;;;;;;1.17;1.08;;;16.10;77.70;;;;;;4882570;29;20041;-85
2021/09/08 04:30:32;;;;;;;2.42;1.33;;;16.10;77.70;;;;;;4898858;29;20547;-85
2021/09/08 04:32:58;;;;;;;1.10;1.00;;;16.10;77.70;;;;;;4898706;29;20479;-85
2021/09/08 04:35:24;;;;;;;2.20;1.30;;;16.10;77.80;;;;;;4883352;29;20037;-86
2021/09/08 04:37:50;;;;;;;1.70;1.20;;;16.10;77.80;;;;;;4883229;29;20372;-85
2021/09/08 04:40:15;;;;;;;1.48;1.10;;;16.00;77.80;;;;;;4883470;29;20067;-86
2021/09/08 04:42:41;;;;;;;1.60;0.93;;;16.00;77.80;;;;;;4883168;29;20029;-86
2021/09/08 04:45:08;;;;;;;0.95;0.73;;;16.00;77.90;;;;;;4898618;29;20542;-86
2021/09/08 04:47:33;;;;;;;1.38;1.00;;;16.00;78.00;;;;;;4867288;29;20372;-86
2021/09/08 04:49:59;;;;;;;1.17;0.90;;;16.00;78.00;;;;;;4898574;29;20060;-86
2021/09/08 04:52:25;;;;;;;1.50;0.98;;;15.90;78.00;;;;;;4867181;29;20053;-85
2021/09/08 04:54:51;;;;;;;1.85;1.20;;;16.00;78.10;;;;;;4882348;29;20530;-85
2021/09/08 04:57:17;;;;;;;1.42;1.00;;;15.90;78.10;;;;;;4897524;29;20048;-85
2021/09/08 04:59:42;;;;;;;1.48;1.08;;;15.90;78.10;;;;;;4898197;29;20051;-85
2021/09/08 05:02:08;;;;;;;1.60;1.00;;;15.90;78.10;;;;;;4881202;29;20131;-86
2021/09/08 05:04:34;;;;;;;1.85;1.00;;;15.90;78.20;;;;;;4898163;29;20572;-86
2021/09/08 05:06:59;;;;;;;1.98;1.17;;;15.90;78.20;;;;;;4866607;29;20040;-86
2021/09/08 05:09:25;;;;;;;1.33;1.02;;;15.90;78.30;;;;;;4866305;29;20051;-85
2021/09/08 05:11:51;;;;;;;1.63;1.13;;;15.90;78.30;;;;;;4897656;29;20045;-84
2021/09/08 05:14:18;;;;;;;2.33;1.20;;;15.90;78.40;;;;;;4897657;29;20755;-83
2021/09/08 05:16:44;;;;;;;2.00;1.35;;;15.80;78.40;;;;;;4882454;29;20449;-84
2021/09/08 05:19:09;;;;;;;1.98;1.30;;;15.80;78.40;;;;;;4897388;29;20051;-83
2021/09/08 05:21:35;;;;;;;2.53;1.60;;;15.80;78.40;;;;;;4898085;29;20124;-83
2021/09/08 05:24:01;;;;;;;1.50;1.20;;;15.80;78.40;;;;;;4882194;29;20033;-83
2021/09/08 05:26:27;;;;;;;2.25;1.20;;;15.80;78.40;;;;;;4897911;29;20029;-85
2021/09/08 05:28:53;;;;;;;1.63;1.15;;;15.80;78.40;;;;;;4883870;29;20041;-85
2021/09/08 05:31:19;;;;;;;2.17;1.17;;;15.80;78.40;;;;;;4899350;29;20551;-85
2021/09/08 05:33:44;;;;;;;2.03;1.30;;;15.80;78.30;;;;;;4882570;29;20033;-84
2021/09/08 05:36:10;;;;;;;1.60;1.00;;;15.90;78.40;;;;;;4882407;29;20506;-84
2021/09/08 05:38:36;;;;;;;2.50;1.30;;;16.00;78.40;;;;;;4899851;29;20472;-84
2021/09/08 05:41:05;;;;;;;1.23;1.02;;;15.90;78.20;;;;;;4897926;29;20076;-84
2021/09/08 05:43:32;;;;;;;1.85;1.30;;;15.90;78.30;;;;;;4897912;29;20040;-85
2021/09/08 05:45:57;;;;;;;1.63;1.15;;;16.00;78.20;;;;;;4896688;29;20451;-84
2021/09/08 05:48:23;;;;;;;2.03;1.33;;;16.00;78.20;;;;;;4897884;29;20105;-84
2021/09/08 05:50:49;;;;;;;2.03;1.20;;;15.90;78.20;;;;;;4897168;29;20407;-84
2021/09/08 05:53:14;;;;;;;1.58;1.10;;;16.00;78.20;;;;;;4897565;29;20400;-85
2021/09/08 05:55:40;;;;;;;2.28;1.45;;;16.00;78.20;;;;;;4881828;29;20037;-84
2021/09/08 05:58:06;;;;;;;1.92;1.25;;;16.00;78.20;;;;;;4898814;29;20052;-85
2021/09/08 06:00:56;;;;;;;2.22;1.40;;;16.00;78.20;;;;;;4902028;29;20049;-86
2021/09/08 06:03:21;;;;;;;1.98;1.40;;;16.10;78.20;;;;;;4882184;29;20448;-85
2021/09/08 06:05:47;;;;;;;3.38;1.60;;;16.10;78.10;;;;;;4866569;29;20036;-86
2021/09/08 06:08:13;;;;;;;2.88;1.60;;;16.10;78.10;;;;;;4882292;29;20480;-86
2021/09/08 06:10:39;;;;;;;2.13;1.40;;;16.10;78.00;;;;;;4883456;29;20059;-84
2021/09/08 06:13:04;;;;;;;2.35;1.50;;;16.10;78.00;;;;;;4897654;29;20043;-84
2021/09/08 06:15:31;;;;;;;2.35;1.40;;;16.20;78.00;;;;;;4896483;29;20052;-84
2021/09/08 06:17:57;;;;;;;2.05;1.48;;;16.10;77.90;;;;;;4897731;29;20100;-84
2021/09/08 06:20:23;;;;;;;1.83;1.33;;;16.30;77.90;;;;;;4880703;29;20140;-84
2021/09/08 06:22:49;;;;;;;2.15;1.25;;;16.30;77.90;;;;;;4881760;29;20105;-82
2021/09/08 06:25:15;;;;;;;2.92;1.80;;;16.30;77.90;;;;;;4897582;29;20045;-84
2021/09/08 06:27:41;;;;;;;3.97;1.80;;;16.40;77.80;;;;;;4896313;29;20044;-84
2021/09/08 06:30:07;;;;;;;1.90;1.10;;;16.40;77.80;;;;;;4896127;29;20040;-83
2021/09/08 06:32:33;;;;;;;2.05;1.48;;;16.40;77.70;;;;;;4844205;29;20045;-84
2021/09/08 06:34:59;;;;;;;2.60;1.70;;;16.50;77.70;;;;;;4844657;29;20074;-84
2021/09/08 06:37:25;;;;;;;1.90;1.45;;;16.50;77.60;;;;;;4842458;29;20053;-84
2021/09/08 06:39:50;;;;;;;2.67;1.40;;;16.50;77.50;;;;;;4858566;29;20045;-85
2021/09/08 06:42:31;;;;;;;2.20;1.48;;;16.60;78.20;;;;;;4859813;29;20037;-85
2021/09/08 06:45:06;;;;;;;2.00;1.27;;;16.60;77.60;;;;;;4845949;29;20053;-84
2021/09/08 06:47:32;;;;;;;2.13;1.30;;;16.60;77.40;;;;;;4858541;29;20053;-86
2021/09/08 06:50:04;;;;;;;1.52;1.10;;;16.60;77.40;;;;;;4830036;29;20404;-86
2021/09/08 06:52:29;;;;;;;1.50;1.08;;;16.70;77.40;;;;;;4843887;29;20045;-84
2021/09/08 06:54:56;;;;;;;2.10;1.30;;;16.70;77.40;;;;;;4855844;29;20492;-86
2021/09/08 06:57:22;;;;;;;1.55;1.20;;;16.70;77.40;;;;;;4854806;29;20042;-86
2021/09/08 06:59:53;;;;;;;1.67;1.20;;;16.70;77.40;;;;;;4859086;29;20053;-88
2021/09/08 07:02:20;;;;;;;;;;;16.80;77.40;;;;;;4836916;29;20071;-87
2021/09/08 07:05:31;;;;;;;2.45;1.23;;;16.80;77.40;;;;;;4884379;29;20366;-88
2021/09/08 07:07:57;;;;;;;1.85;1.15;;;16.90;77.40;;;;;;4859251;29;20046;-88
2021/09/08 07:11:08;;;;;;;1.35;1.15;;;16.90;77.40;;;;;;4845842;29;20049;-90
2021/09/08 07:13:33;;;;;;;2.08;1.30;;;16.90;77.40;;;;;;4841980;29;20049;-83
2021/09/08 07:15:59;;;;;;;1.48;1.05;;;16.90;77.30;;;;;;4859119;29;20050;-84
2021/09/08 07:18:25;;;;;;;1.65;0.88;;;17.10;77.30;;;;;;4867779;29;20046;-83
2021/09/08 07:20:51;;;;;;;1.92;1.13;;;17.00;77.20;;;;;;4866661;29;20057;-83
2021/09/08 07:23:16;;;;;;;1.25;0.90;;;17.10;77.30;;;;;;4857474;29;20034;-86
2021/09/08 07:25:42;;;;;;;1.95;1.10;;;17.10;77.20;;;;;;4844032;29;20577;-83
2021/09/08 07:28:08;;;;;;;2.45;1.52;;;17.20;77.20;;;;;;4857647;29;20056;-83
2021/09/08 07:30:34;;;;;;;1.80;1.30;;;17.20;77.20;;;;;;4858097;29;20085;-85
2021/09/08 07:32:59;;;;;;;2.08;1.48;;;17.20;77.10;;;;;;4859533;29;20150;-85
2021/09/08 07:36:03;;;;;;;1.85;1.17;;;17.20;76.90;;;;;;4861040;29;20038;-83
2021/09/08 07:38:29;;;;;;;1.50;1.10;;;17.40;76.90;;;;;;4872000;29;20501;-85
2021/09/08 07:40:55;;;;;;;1.42;1.15;;;17.40;76.80;;;;;;4900247;29;20053;-86
2021/09/08 07:43:22;;;;;;;1.80;1.17;;;17.40;76.80;;;;;;4878671;29;20119;-85
2021/09/08 07:45:48;;;;;;;1.73;1.15;;;17.50;76.80;;;;;;4899911;29;20036;-84
2021/09/08 07:48:14;;;;;;;2.00;1.38;;;17.50;76.70;;;;;;4899228;29;20060;-85
2021/09/08 07:50:41;;;;;;;2.20;1.30;;;17.60;76.80;;;;;;4867235;29;20052;-85
2021/09/08 07:53:10;;;;;;;1.42;1.00;;;17.60;76.70;;;;;;4900323;29;20047;-84
2021/09/08 07:55:39;;;;;;;1.90;1.20;;;17.70;76.70;;;;;;4899217;29;20056;-86
2021/09/08 07:58:05;;;;;;;1.75;1.27;;;17.80;76.60;;;;;;4898427;29;20057;-85
2021/09/08 08:00:35;;;;;;;1.92;1.02;;;17.90;76.50;;;;;;4867122;29;20612;-85
2021/09/08 08:03:01;;;;;;;1.85;1.20;;;17.90;76.40;;;;;;4898710;29;20037;-86
2021/09/08 08:05:50;;;;;;;1.98;1.17;;;18.00;76.30;;;;;;4885800;29;20037;-84
2021/09/08 08:08:16;;;;;;;3.13;1.55;;;18.20;76.20;;;;;;4862423;29;20053;-84
2021/09/08 08:11:17;;;;;;;2.35;1.48;;;18.40;76.10;;;;;;4855654;29;20079;-85
2021/09/08 08:13:47;;;;;;;1.35;1.10;;;18.50;75.70;;;;;;4812564;29;20073;-82
2021/09/08 08:16:14;;;;;;;2.33;1.48;;;18.70;75.60;;;;;;4842165;29;20119;-82
2021/09/08 08:18:40;;;;;;;2.67;1.63;;;18.80;75.30;;;;;;4827113;29;20053;-84
2021/09/08 08:21:06;;;;;;;2.45;1.60;;;19.00;75.10;;;;;;4844378;29;20605;-84
2021/09/08 08:23:32;;;;;;;2.45;1.70;;;19.10;74.80;;;;;;4830515;29;20110;-83
2021/09/08 08:25:57;;;;;;;1.50;1.33;;;19.30;74.70;;;;;;4844546;29;20053;-84
2021/09/08 08:28:23;;;;;;;2.70;1.70;;;19.40;74.40;;;;;;4843750;29;20094;-85
2021/09/08 08:30:49;;;;;;;2.33;1.40;;;19.60;74.40;;;;;;4845142;29;20046;-85
2021/09/08 08:33:15;;;;;;;2.15;1.50;;;19.70;74.20;;;;;;4832211;29;20541;-84
2021/09/08 08:35:41;;;;;;;2.67;1.60;;;19.70;74.10;;;;;;4841560;29;20478;-84
2021/09/08 08:38:46;;;;;;;2.05;1.52;;;19.90;74.10;;;;;;4842479;29;20527;-83
2021/09/08 08:41:13;;;;;;;2.03;1.55;;;20.20;74.00;;;;;;4860849;29;20050;-84
2021/09/08 08:43:39;;;;;;;1.73;1.27;;;20.20;73.90;;;;;;4855688;29;20147;-80
2021/09/08 08:46:06;;;;;;;2.22;1.35;;;20.30;73.80;;;;;;4884501;29;20036;-82
2021/09/08 08:48:32;;;;;;;1.73;1.20;;;20.40;73.70;;;;;;4868435;29;20042;-78
2021/09/08 08:50:58;;;;;;;2.15;1.40;;;20.60;73.70;;;;;;4855362;29;20042;-79
2021/09/08 08:53:23;;;;;;;1.65;1.17;;;20.60;73.60;;;;;;4862473;29;20045;-82
2021/09/08 08:55:49;;;;;;;1.67;1.30;;;20.80;73.60;;;;;;4875092;29;20049;-78
2021/09/08 08:58:15;;;;;;;1.58;1.20;;;20.80;73.40;;;;;;4869984;29;20041;-80
2021/09/08 09:00:48;;;;;;;2.28;1.48;;;21.00;73.40;;;;;;4840561;29;20194;-81
2021/09/08 09:03:30;;;;;;;2.03;1.40;;;21.00;73.20;;;;;;4846622;29;20677;-79
2021/09/08 09:06:03;;;;;;;1.55;1.10;;;21.10;73.00;;;;;;4864163;29;20136;-81
2021/09/08 09:08:33;;;;;;;1.88;1.33;;;21.30;73.00;;;;;;4878379;29;20514;-83
2021/09/08 09:10:59;;;;;;;1.13;0.98;;;21.40;72.90;;;;;;4862790;29;20068;-76
2021/09/08 09:13:35;;;;;;;1.60;1.20;;;21.50;72.80;;;;;;4847670;29;20104;-76
2021/09/08 09:16:09;;;;;;;1.38;1.08;;;21.60;72.60;;;;;;4862879;29;20076;-78
2021/09/08 09:18:40;;;;;;;1.58;1.20;;;21.60;72.50;;;;;;4849081;29;20468;-77
2021/09/08 09:21:12;;;;;;;1.60;1.20;;;21.60;72.50;;;;;;4898391;29;20036;-77
2021/09/08 09:23:58;;;;;;;1.33;1.05;;;21.70;72.50;;;;;;4881601;29;20048;-77
2021/09/08 09:26:34;;;;;;;1.90;1.30;;;21.70;72.50;;;;;;4898384;29;20044;-76
2021/09/08 09:29:13;;;;;;;1.80;1.30;;;21.80;72.50;;;;;;4898969;29;20033;-77
2021/09/08 09:31:52;;;;;;;1.20;1.10;;;21.80;72.40;;;;;;4898744;29;20033;-77
2021/09/08 09:34:18;;;;;;;1.55;1.20;;;21.90;72.40;;;;;;4897158;29;20032;-76
2021/09/08 09:36:43;;;;;;;1.35;1.15;;;21.90;72.40;;;;;;4898388;29;20479;-77
2021/09/08 09:39:10;;;;;;;2.22;1.48;;;22.00;72.40;;;;;;4896836;29;20436;-76
2021/09/08 09:41:35;;;;;;;1.65;1.35;;;22.00;72.40;;;;;;4898486;29;20087;-81
2021/09/08 09:44:10;;;;;;;1.50;1.20;;;22.00;72.30;;;;;;4865887;29;20064;-80
2021/09/08 09:46:40;;;;;;;1.48;1.20;;;22.10;72.20;;;;;;4900270;29;20058;-77
2021/09/08 09:49:06;;;;;;;1.73;1.27;;;22.20;72.20;;;;;;4896659;29;20510;-78
2021/09/08 09:51:31;;;;;;;2.10;1.60;;;22.20;72.20;;;;;;4898238;29;20112;-80
2021/09/08 09:53:58;;;;;;;2.03;1.42;;;22.20;72.10;;;;;;4881159;29;20056;-80
2021/09/08 09:56:24;;;;;;;2.05;1.38;;;22.20;71.90;;;;;;4865707;29;20037;-80
2021/09/08 09:58:51;;;;;;;1.92;1.50;;;22.40;72.00;;;;;;4906921;29;20088;-78
2021/09/08 10:01:18;;;;;;;2.85;1.55;;;22.30;71.90;;;;;;4909639;29;20036;-78
2021/09/08 10:03:44;;;;;;;1.08;0.98;;;22.30;71.90;;;;;;4902130;29;20131;-77
2021/09/08 10:06:10;;;;;;;1.75;1.23;;;22.30;71.90;;;;;;4918745;29;20044;-77
2021/09/08 10:08:42;;;;;;;1.80;1.20;;;22.40;71.90;;;;;;4908580;29;20544;-79
2021/09/08 10:11:10;;;;;;;3.95;1.98;;;22.40;71.90;;;;;;4897603;29;20041;-77
2021/09/08 10:13:48;;;;;;;4.03;2.00;;;22.40;71.80;;;;;;4898415;29;20096;-78
2021/09/08 10:16:14;;;;;;;3.03;1.85;;;22.50;71.60;;;;;;4905377;29;20043;-77
2021/09/08 10:18:41;;;;;;;2.67;1.80;;;22.50;71.40;;;;;;4918986;29;20044;-79
2021/09/08 10:21:10;;;;;;;3.30;1.80;;;22.50;71.30;;;;;;4916004;29;20049;-78
2021/09/08 10:23:51;;;;;;;2.60;1.75;;;22.50;71.20;;;;;;4917360;29;20033;-77
2021/09/08 10:26:18;;;;;;;2.65;1.60;;;22.60;71.30;;;;;;4910507;29;20107;-78
2021/09/08 10:28:46;;;;;;;2.67;1.73;;;22.60;71.30;;;;;;4916245;29;20040;-77
2021/09/08 10:31:13;;;;;;;2.15;1.48;;;22.60;71.30;;;;;;4914367;29;20040;-77
2021/09/08 10:33:42;;;;;;;1.70;1.40;;;22.50;71.20;;;;;;4900548;29;20088;-78
2021/09/08 10:36:11;;;;;;;2.08;1.58;;;22.60;71.30;;;;;;4896993;29;20045;-78
2021/09/08 10:38:37;;;;;;;1.92;1.40;;;22.70;71.40;;;;;;4896357;29;20060;-79
2021/09/08 10:41:04;;;;;;;2.20;1.50;;;22.70;71.20;;;;;;4897076;29;20083;-79
2021/09/08 10:43:33;;;;;;;1.80;1.38;;;22.80;71.20;;;;;;4901067;29;20040;-79
2021/09/08 10:45:59;;;;;;;1.70;1.27;;;22.90;71.10;;;;;;4885371;29;20099;-78
2021/09/08 10:48:43;;;;;;;2.22;1.40;;;22.90;71.00;;;;;;4901953;29;20115;-78
2021/09/08 10:51:18;;;;;;;1.70;1.30;;;22.90;70.90;;;;;;4903770;29;20396;-84
2021/09/08 10:53:59;;;;;;;2.22;1.42;;;23.00;70.90;;;;;;4866368;29;20132;-84
2021/09/08 10:56:41;;;;;;;1.83;1.45;;;23.00;70.80;;;;;;4896239;29;20105;-84
2021/09/08 10:59:06;;;;;;;1.80;1.30;;;23.10;70.70;;;;;;4896285;29;20048;-84
2021/09/08 11:01:32;;;;;;;2.28;1.52;;;23.10;70.70;;;;;;4897087;29;20061;-84
2021/09/08 11:03:58;;;;;;;4.57;1.58;;;23.20;70.60;;;;;;4898172;29;20029;-78
2021/09/08 11:06:44;;;;;;;2.25;1.60;;;23.10;70.40;;;;;;4903445;29;20036;-82
2021/09/08 11:09:12;;;;;;;1.67;1.30;;;23.20;70.30;;;;;;4897951;29;20036;-81
2021/09/08 11:11:53;;;;;;;2.30;1.63;;;23.30;70.30;;;;;;4881556;29;20064;-81
2021/09/08 11:14:22;;;;;;;2.55;1.63;;;23.40;70.30;;;;;;4895847;29;20040;-78
2021/09/08 11:16:48;;;;;;;1.35;1.13;;;23.30;70.00;;;;;;4863938;29;20043;-79
2021/09/08 11:19:14;;;;;;;1.92;1.42;;;23.40;69.90;;;;;;4906577;29;20044;-80
2021/09/08 11:21:41;;;;;;;2.13;1.45;;;23.50;69.80;;;;;;4898037;29;20037;-80
2021/09/08 11:24:09;;;;;;;1.98;1.27;;;23.60;69.60;;;;;;4902743;29;20496;-80
2021/09/08 11:26:38;;;;;;;2.35;1.70;;;23.70;69.50;;;;;;4910653;29;20036;-78
2021/09/08 11:29:08;;;;;;;1.77;1.50;;;23.70;69.30;;;;;;4900075;29;20059;-77
2021/09/08 11:31:40;;;;;;;1.65;1.40;;;23.80;69.20;;;;;;4895914;29;20045;-77
2021/09/08 11:34:18;;;;;;;1.88;1.35;;;23.80;69.00;;;;;;4880390;29;20041;-78
2021/09/08 11:36:44;;;;;;;1.80;1.27;;;23.90;68.80;;;;;;4896984;29;20104;-78
2021/09/08 11:39:15;;;;;;;1.50;1.27;;;24.00;68.70;;;;;;4895155;29;21983;-77
2021/09/08 11:42:09;;;;;;;2.10;1.55;;;24.10;69.20;;;;;;4895063;29;20048;-77
2021/09/08 11:44:35;;;;;;;3.13;1.90;;;24.10;68.40;;;;;;4896307;29;20043;-78
2021/09/08 11:47:16;;;;;;;2.75;1.77;;;24.20;68.30;;;;;;4895737;29;20451;-77
2021/09/08 11:49:42;;;;;;;1.52;1.30;;;24.30;68.10;;;;;;4897334;29;20081;-78
2021/09/08 11:52:16;;;;;;;2.33;1.50;;;24.30;67.90;;;;;;4896726;29;20088;-77
2021/09/08 11:54:47;;;;;;;2.15;1.60;;;24.40;67.70;;;;;;4895898;29;20060;-80
2021/09/08 11:57:14;;;;;;;2.08;1.50;;;24.60;67.70;;;;;;4897538;29;20055;-79
2021/09/08 11:59:42;;;;;;;2.17;1.60;;;24.60;67.50;;;;;;4879408;29;20059;-78
2021/09/08 12:02:07;;;;;;;1.88;1.48;;;24.60;67.40;;;;;;4896222;29;20029;-79
2021/09/08 12:04:33;;;;;;;2.15;1.33;;;24.70;67.30;;;;;;4897558;29;20448;-80
2021/09/08 12:07:11;;;;;;;1.80;1.40;;;24.80;67.20;;;;;;4880090;29;20048;-81
2021/09/08 12:09:41;;;;;;;1.65;1.45;;;25.00;67.20;;;;;;4836845;29;20085;-82
2021/09/08 12:12:08;;;;;;;1.30;1.20;;;24.90;67.00;;;;;;4788841;29;20562;-80
2021/09/08 12:14:39;;;;;;;1.40;1.20;;;25.00;67.00;;;;;;4821922;29;20137;-82
2021/09/08 12:21:18;;;;;;;1.60;1.33;;;25.10;66.70;;;;;;4833068;29;20084;-80
2021/09/08 12:24:29;;;;;;;1.70;1.30;;;25.20;66.60;;;;;;4823033;29;20037;-78
2021/09/08 12:26:56;;;;;;;1.38;1.20;;;25.20;66.50;;;;;;4821976;29;20097;-80
2021/09/08 12:29:22;;;;;;;2.42;1.20;;;25.20;66.50;;;;;;4832070;29;20433;-83
2021/09/08 12:32:06;;;;;;;1.17;1.00;;;25.20;66.40;;;;;;4827039;29;20467;-88
2021/09/08 12:35:07;;;;;;;2.33;1.52;;;25.30;66.40;;;;;;5252868;23;20052;-90
2021/09/08 12:37:32;;;;;;;1.50;1.15;;;25.30;66.30;;;;;;4881122;29;20137;-83
2021/09/08 12:39:58;;;;;;;1.50;1.40;;;25.30;66.30;;;;;;4847306;29;20049;-81
2021/09/08 12:42:26;;;;;;;1.65;1.35;;;25.30;66.90;;;;;;4876535;29;20045;-82
2021/09/08 12:45:05;;;;;;;1.95;1.50;;;25.30;66.30;;;;;;4864949;29;20073;-86
2021/09/08 12:55:13;;;;;;;2.08;1.52;;;25.40;66.00;;;;;;4841979;29;20110;-85
2021/09/08 12:57:39;;;;;;;2.15;1.55;;;25.60;65.90;;;;;;4811746;29;20057;-81
2021/09/08 13:00:05;;;;;;;1.42;1.30;;;25.60;65.70;;;;;;4827120;29;20436;-80
2021/09/08 13:02:31;;;;;;;1.27;1.13;;;25.60;65.70;;;;;;4847207;29;20053;-78
2021/09/08 13:04:57;;;;;;;1.63;1.30;;;25.60;65.70;;;;;;4843424;29;20042;-82
2021/09/08 13:07:23;;;;;;;1.50;1.30;;;25.70;65.90;;;;;;4827482;29;20041;-79